sensor_id;sensor_type;location;lat;lon;timestamp;pressure;altitude;pressure_sealevel;temperature;humidity
21359;BME280;13506;50.852;20.632;2022-08-03T00:01:16;98569.09;;;22.73;90.94
21359;BME280;13506;50.852;20.632;2022-08-03T00:03:44;98576.56;;;22.69;91.38
21359;BME280;13506;50.852;20.632;2022-08-03T00:06:13;98577.22;;;22.71;91.41
21359;BME280;13506;50.852;20.632;2022-08-03T00:08:41;98577.22;;;22.71;90.91
21359;BME280;13506;50.852;20.632;2022-08-03T00:11:08;98570.09;;;22.72;90.48
21359;BME280;13506;50.852;20.632;2022-08-03T00:13:36;98573.53;;;22.64;91.40
21359;BME280;13506;50.852;20.632;2022-08-03T00:16:04;98571.56;;;22.66;90.95
21359;BME280;13506;50.852;20.632;2022-08-03T00:18:32;98569.22;;;22.63;90.98
21359;BME280;13506;50.852;20.632;2022-08-03T00:20:59;98575.50;;;22.62;92.11
21359;BME280;13506;50.852;20.632;2022-08-03T00:23:28;98570.88;;;22.64;91.55
21359;BME280;13506;50.852;20.632;2022-08-03T00:25:55;98567.25;;;22.65;91.23
21359;BME280;13506;50.852;20.632;2022-08-03T00:28:23;98578.16;;;22.62;91.72
21359;BME280;13506;50.852;20.632;2022-08-03T00:30:51;98564.41;;;22.59;91.89
21359;BME280;13506;50.852;20.632;2022-08-03T00:33:19;98578.50;;;22.59;92.04
21359;BME280;13506;50.852;20.632;2022-08-03T00:35:47;98577.16;;;22.55;92.23
21359;BME280;13506;50.852;20.632;2022-08-03T00:38:14;98573.34;;;22.58;91.79
21359;BME280;13506;50.852;20.632;2022-08-03T00:40:43;98571.19;;;22.53;92.77
21359;BME280;13506;50.852;20.632;2022-08-03T00:43:10;98559.56;;;22.54;92.12
21359;BME280;13506;50.852;20.632;2022-08-03T00:45:40;98568.53;;;22.53;92.62
21359;BME280;13506;50.852;20.632;2022-08-03T00:48:09;98579.44;;;22.50;92.22
21359;BME280;13506;50.852;20.632;2022-08-03T00:50:40;98579.44;;;22.50;92.01
21359;BME280;13506;50.852;20.632;2022-08-03T00:53:10;98580.59;;;22.47;92.15
21359;BME280;13506;50.852;20.632;2022-08-03T00:55:39;98584.41;;;22.45;92.19
21359;BME280;13506;50.852;20.632;2022-08-03T00:58:08;98585.41;;;22.44;91.59
21359;BME280;13506;50.852;20.632;2022-08-03T01:00:38;98592.69;;;22.42;91.93
21359;BME280;13506;50.852;20.632;2022-08-03T01:03:07;98589.34;;;22.40;91.86
21359;BME280;13506;50.852;20.632;2022-08-03T01:05:43;98588.00;;;22.35;92.45
21359;BME280;13506;50.852;20.632;2022-08-03T01:08:27;98591.34;;;22.38;92.10
21359;BME280;13506;50.852;20.632;2022-08-03T01:11:08;98587.16;;;22.35;92.05
21359;BME280;13506;50.852;20.632;2022-08-03T01:13:47;98584.97;;;22.30;92.03
21359;BME280;13506;50.852;20.632;2022-08-03T01:16:22;98586.66;;;22.31;91.83
21359;BME280;13506;50.852;20.632;2022-08-03T01:18:59;98591.44;;;22.28;91.81
21359;BME280;13506;50.852;20.632;2022-08-03T01:21:33;98587.56;;;22.22;91.97
21359;BME280;13506;50.852;20.632;2022-08-03T01:24:10;98585.09;;;22.21;91.92
21359;BME280;13506;50.852;20.632;2022-08-03T01:26:58;98592.84;;;22.14;92.77
21359;BME280;13506;50.852;20.632;2022-08-03T01:29:49;98588.50;;;22.13;92.94
21359;BME280;13506;50.852;20.632;2022-08-03T01:32:21;98594.13;;;22.10;92.99
21359;BME280;13506;50.852;20.632;2022-08-03T01:34:54;98588.31;;;22.06;93.47
21359;BME280;13506;50.852;20.632;2022-08-03T01:37:26;98600.06;;;22.04;93.44
21359;BME280;13506;50.852;20.632;2022-08-03T01:40:01;98590.75;;;22.00;93.51
21359;BME280;13506;50.852;20.632;2022-08-03T01:42:32;98596.72;;;22.02;93.27
21359;BME280;13506;50.852;20.632;2022-08-03T01:45:03;98601.03;;;22.03;93.04
21359;BME280;13506;50.852;20.632;2022-08-03T01:47:32;98587.78;;;22.03;92.98
21359;BME280;13506;50.852;20.632;2022-08-03T01:50:00;98587.09;;;22.01;92.50
21359;BME280;13506;50.852;20.632;2022-08-03T01:52:30;98579.31;;;21.99;92.89
21359;BME280;13506;50.852;20.632;2022-08-03T01:54:59;98581.97;;;21.99;92.26
21359;BME280;13506;50.852;20.632;2022-08-03T01:57:29;98579.09;;;21.92;92.56
21359;BME280;13506;50.852;20.632;2022-08-03T02:00:03;98573.97;;;21.91;92.75
21359;BME280;13506;50.852;20.632;2022-08-03T02:02:38;98572.63;;;21.87;92.94
21359;BME280;13506;50.852;20.632;2022-08-03T02:05:09;98570.13;;;21.85;92.91
21359;BME280;13506;50.852;20.632;2022-08-03T02:07:40;98568.44;;;21.84;92.45
21359;BME280;13506;50.852;20.632;2022-08-03T02:10:12;98570.94;;;21.86;92.58
21359;BME280;13506;50.852;20.632;2022-08-03T02:12:43;98565.66;;;21.86;92.69
21359;BME280;13506;50.852;20.632;2022-08-03T02:15:15;98565.31;;;21.81;92.71
21359;BME280;13506;50.852;20.632;2022-08-03T02:17:46;98573.72;;;21.76;92.61
21359;BME280;13506;50.852;20.632;2022-08-03T02:20:16;98571.50;;;21.71;93.04
21359;BME280;13506;50.852;20.632;2022-08-03T02:22:46;98568.34;;;21.68;93.46
21359;BME280;13506;50.852;20.632;2022-08-03T02:25:14;98568.66;;;21.65;93.23
21359;BME280;13506;50.852;20.632;2022-08-03T02:27:51;98575.63;;;21.66;93.24
21359;BME280;13506;50.852;20.632;2022-08-03T02:30:29;98574.28;;;21.62;93.34
21359;BME280;13506;50.852;20.632;2022-08-03T02:33:01;98563.69;;;21.62;93.09
21359;BME280;13506;50.852;20.632;2022-08-03T02:35:29;98574.06;;;21.55;93.77
21359;BME280;13506;50.852;20.632;2022-08-03T02:38:01;98581.53;;;21.60;93.03
21359;BME280;13506;50.852;20.632;2022-08-03T02:40:30;98580.72;;;21.59;93.15
21359;BME280;13506;50.852;20.632;2022-08-03T02:43:05;98574.72;;;21.57;93.16
21359;BME280;13506;50.852;20.632;2022-08-03T02:45:42;98574.88;;;21.55;93.29
21359;BME280;13506;50.852;20.632;2022-08-03T02:48:11;98572.53;;;21.52;93.65
21359;BME280;13506;50.852;20.632;2022-08-03T02:50:44;98567.41;;;21.51;93.74
21359;BME280;13506;50.852;20.632;2022-08-03T02:53:12;98569.66;;;21.46;94.17
21359;BME280;13506;50.852;20.632;2022-08-03T02:55:41;98575.50;;;21.49;93.71
21359;BME280;13506;50.852;20.632;2022-08-03T02:58:11;98567.53;;;21.49;93.83
21359;BME280;13506;50.852;20.632;2022-08-03T03:00:43;98571.34;;;21.47;94.22
21359;BME280;13506;50.852;20.632;2022-08-03T03:03:12;98575.94;;;21.45;93.74
21359;BME280;13506;50.852;20.632;2022-08-03T03:05:41;98573.16;;;21.46;94.06
21359;BME280;13506;50.852;20.632;2022-08-03T03:08:12;98577.91;;;21.43;94.08
21359;BME280;13506;50.852;20.632;2022-08-03T03:10:41;98574.94;;;21.46;93.69
21359;BME280;13506;50.852;20.632;2022-08-03T03:13:10;98574.44;;;21.42;93.88
21359;BME280;13506;50.852;20.632;2022-08-03T03:15:43;98585.16;;;21.41;94.35
21359;BME280;13506;50.852;20.632;2022-08-03T03:18:12;98578.19;;;21.40;94.25
21359;BME280;13506;50.852;20.632;2022-08-03T03:20:40;98572.06;;;21.39;94.17
21359;BME280;13506;50.852;20.632;2022-08-03T03:23:10;98582.50;;;21.41;94.11
21359;BME280;13506;50.852;20.632;2022-08-03T03:25:39;98582.78;;;21.38;94.67
21359;BME280;13506;50.852;20.632;2022-08-03T03:28:07;98579.03;;;21.40;94.43
21359;BME280;13506;50.852;20.632;2022-08-03T03:30:37;98582.38;;;21.42;93.80
21359;BME280;13506;50.852;20.632;2022-08-03T03:33:06;98587.50;;;21.44;93.80
21359;BME280;13506;50.852;20.632;2022-08-03T03:35:34;98573.75;;;21.40;94.01
21359;BME280;13506;50.852;20.632;2022-08-03T03:38:02;98581.94;;;21.47;93.88
21359;BME280;13506;50.852;20.632;2022-08-03T03:40:30;98585.53;;;21.46;93.41
21359;BME280;13506;50.852;20.632;2022-08-03T03:42:58;98584.19;;;21.42;93.52
21359;BME280;13506;50.852;20.632;2022-08-03T03:45:26;98587.69;;;21.42;94.00
21359;BME280;13506;50.852;20.632;2022-08-03T03:47:54;98591.00;;;21.44;93.54
21359;BME280;13506;50.852;20.632;2022-08-03T03:50:23;98592.19;;;21.50;93.09
21359;BME280;13506;50.852;20.632;2022-08-03T03:52:51;98594.03;;;21.49;93.00
21359;BME280;13506;50.852;20.632;2022-08-03T03:55:19;98588.41;;;21.52;92.87
21359;BME280;13506;50.852;20.632;2022-08-03T03:57:46;98590.22;;;21.52;92.68
21359;BME280;13506;50.852;20.632;2022-08-03T04:00:17;98597.72;;;21.57;92.68
21359;BME280;13506;50.852;20.632;2022-08-03T04:02:45;98602.84;;;21.58;92.33
21359;BME280;13506;50.852;20.632;2022-08-03T04:05:13;98603.00;;;21.57;92.91
21359;BME280;13506;50.852;20.632;2022-08-03T04:08:05;98608.38;;;21.65;92.49
21359;BME280;13506;50.852;20.632;2022-08-03T04:11:02;98606.94;;;21.70;92.31
21359;BME280;13506;50.852;20.632;2022-08-03T04:13:36;98607.47;;;21.74;92.34
21359;BME280;13506;50.852;20.632;2022-08-03T04:16:07;98609.13;;;21.75;92.50
21359;BME280;13506;50.852;20.632;2022-08-03T04:18:40;98604.66;;;21.75;93.08
21359;BME280;13506;50.852;20.632;2022-08-03T04:21:11;98623.09;;;21.85;93.05
21359;BME280;13506;50.852;20.632;2022-08-03T04:23:45;98611.75;;;21.93;92.68
21359;BME280;13506;50.852;20.632;2022-08-03T04:26:19;98608.78;;;21.96;93.03
21359;BME280;13506;50.852;20.632;2022-08-03T04:28:48;98614.81;;;22.06;93.09
21359;BME280;13506;50.852;20.632;2022-08-03T04:31:21;98619.16;;;22.15;93.13
21359;BME280;13506;50.852;20.632;2022-08-03T04:33:52;98620.75;;;22.26;92.67
21359;BME280;13506;50.852;20.632;2022-08-03T04:36:22;98620.66;;;22.36;92.37
21359;BME280;13506;50.852;20.632;2022-08-03T04:39:01;98618.88;;;22.45;91.40
21359;BME280;13506;50.852;20.632;2022-08-03T04:41:30;98618.53;;;22.48;91.56
21359;BME280;13506;50.852;20.632;2022-08-03T04:44:00;98622.09;;;22.56;91.28
21359;BME280;13506;50.852;20.632;2022-08-03T04:46:33;98619.97;;;22.68;91.00
21359;BME280;13506;50.852;20.632;2022-08-03T04:49:03;98623.47;;;22.77;90.17
21359;BME280;13506;50.852;20.632;2022-08-03T04:51:32;98619.88;;;22.86;90.34
21359;BME280;13506;50.852;20.632;2022-08-03T04:54:04;98627.22;;;23.01;89.71
21359;BME280;13506;50.852;20.632;2022-08-03T04:56:34;98613.00;;;23.10;88.51
21359;BME280;13506;50.852;20.632;2022-08-03T04:59:02;98617.66;;;23.16;87.91
21359;BME280;13506;50.852;20.632;2022-08-03T05:01:29;98615.69;;;23.26;87.61
21359;BME280;13506;50.852;20.632;2022-08-03T05:03:57;98623.50;;;23.36;87.10
21359;BME280;13506;50.852;20.632;2022-08-03T05:06:24;98613.69;;;23.36;86.93
21359;BME280;13506;50.852;20.632;2022-08-03T05:08:52;98626.69;;;23.48;87.25
21359;BME280;13506;50.852;20.632;2022-08-03T05:11:21;98622.03;;;23.58;86.75
21359;BME280;13506;50.852;20.632;2022-08-03T05:13:49;98629.66;;;23.69;85.88
21359;BME280;13506;50.852;20.632;2022-08-03T05:16:17;98619.06;;;23.77;85.07
21359;BME280;13506;50.852;20.632;2022-08-03T05:18:45;98627.72;;;23.88;84.64
21359;BME280;13506;50.852;20.632;2022-08-03T05:21:12;98624.19;;;23.95;83.85
21359;BME280;13506;50.852;20.632;2022-08-03T05:23:42;98628.53;;;24.05;83.88
21359;BME280;13506;50.852;20.632;2022-08-03T05:26:09;98634.47;;;24.15;83.26
21359;BME280;13506;50.852;20.632;2022-08-03T05:28:39;98631.94;;;24.30;82.38
21359;BME280;13506;50.852;20.632;2022-08-03T05:31:06;98625.63;;;24.39;82.46
21359;BME280;13506;50.852;20.632;2022-08-03T05:33:34;98625.63;;;24.39;81.12
21359;BME280;13506;50.852;20.632;2022-08-03T05:36:02;98632.72;;;24.47;80.99
21359;BME280;13506;50.852;20.632;2022-08-03T05:38:30;98635.41;;;24.55;80.98
21359;BME280;13506;50.852;20.632;2022-08-03T05:40:59;98632.44;;;24.50;79.93
21359;BME280;13506;50.852;20.632;2022-08-03T05:43:26;98636.06;;;24.49;79.76
21359;BME280;13506;50.852;20.632;2022-08-03T05:45:55;98639.72;;;24.56;79.94
21359;BME280;13506;50.852;20.632;2022-08-03T05:48:24;98643.06;;;24.58;80.17
21359;BME280;13506;50.852;20.632;2022-08-03T05:50:52;98646.41;;;24.52;79.85
21359;BME280;13506;50.852;20.632;2022-08-03T05:53:19;98637.22;;;24.63;79.92
21359;BME280;13506;50.852;20.632;2022-08-03T05:55:47;98645.31;;;24.77;80.35
21359;BME280;13506;50.852;20.632;2022-08-03T05:58:15;98639.25;;;24.92;79.82
21359;BME280;13506;50.852;20.632;2022-08-03T06:00:43;98636.53;;;25.08;79.02
21359;BME280;13506;50.852;20.632;2022-08-03T06:03:11;98638.22;;;25.32;78.99
21359;BME280;13506;50.852;20.632;2022-08-03T06:05:39;98636.41;;;25.56;77.48
21359;BME280;13506;50.852;20.632;2022-08-03T06:08:07;98648.03;;;25.78;76.41
21359;BME280;13506;50.852;20.632;2022-08-03T06:10:34;98641.88;;;26.00;74.73
21359;BME280;13506;50.852;20.632;2022-08-03T06:13:02;98647.31;;;26.07;72.18
21359;BME280;13506;50.852;20.632;2022-08-03T06:15:29;98645.69;;;26.21;71.99
21359;BME280;13506;50.852;20.632;2022-08-03T06:17:59;98643.22;;;26.34;70.94
21359;BME280;13506;50.852;20.632;2022-08-03T06:20:28;98647.81;;;26.55;72.05
21359;BME280;13506;50.852;20.632;2022-08-03T06:22:56;98643.25;;;26.64;70.14
21359;BME280;13506;50.852;20.632;2022-08-03T06:25:23;98638.16;;;26.25;68.27
21359;BME280;13506;50.852;20.632;2022-08-03T06:27:51;98646.47;;;26.59;67.69
21359;BME280;13506;50.852;20.632;2022-08-03T06:30:18;98647.75;;;26.78;67.26
21359;BME280;13506;50.852;20.632;2022-08-03T06:32:46;98651.41;;;26.92;67.34
21359;BME280;13506;50.852;20.632;2022-08-03T06:35:14;98645.06;;;26.93;65.71
21359;BME280;13506;50.852;20.632;2022-08-03T06:37:44;98642.25;;;27.16;66.83
21359;BME280;13506;50.852;20.632;2022-08-03T06:40:14;98646.38;;;27.19;65.42
21359;BME280;13506;50.852;20.632;2022-08-03T06:42:42;98656.50;;;26.72;63.58
21359;BME280;13506;50.852;20.632;2022-08-03T06:45:11;98654.63;;;26.88;63.71
21359;BME280;13506;50.852;20.632;2022-08-03T06:47:39;98647.06;;;27.06;63.06
21359;BME280;13506;50.852;20.632;2022-08-03T06:50:09;98645.66;;;27.25;62.98
21359;BME280;13506;50.852;20.632;2022-08-03T06:52:37;98653.56;;;26.67;63.08
21359;BME280;13506;50.852;20.632;2022-08-03T06:55:07;98642.72;;;27.20;62.11
21359;BME280;13506;50.852;20.632;2022-08-03T06:57:35;98648.47;;;27.60;61.29
21359;BME280;13506;50.852;20.632;2022-08-03T07:00:03;98651.97;;;27.82;61.03
21359;BME280;13506;50.852;20.632;2022-08-03T07:02:31;98653.47;;;27.63;60.34
21359;BME280;13506;50.852;20.632;2022-08-03T07:04:59;98649.13;;;28.05;60.22
21359;BME280;13506;50.852;20.632;2022-08-03T07:07:27;98645.00;;;28.37;58.87
21359;BME280;13506;50.852;20.632;2022-08-03T07:09:54;98655.50;;;28.67;58.36
21359;BME280;13506;50.852;20.632;2022-08-03T07:12:23;98645.56;;;28.96;58.83
21359;BME280;13506;50.852;20.632;2022-08-03T07:14:51;98649.59;;;29.27;59.12
21359;BME280;13506;50.852;20.632;2022-08-03T07:17:19;98638.94;;;29.53;58.41
21359;BME280;13506;50.852;20.632;2022-08-03T07:19:46;98645.94;;;29.54;56.79
21359;BME280;13506;50.852;20.632;2022-08-03T07:22:14;98652.94;;;29.49;56.65
21359;BME280;13506;50.852;20.632;2022-08-03T07:24:42;98652.53;;;29.45;57.01
21359;BME280;13506;50.852;20.632;2022-08-03T07:27:10;98642.88;;;29.71;57.30
21359;BME280;13506;50.852;20.632;2022-08-03T07:29:39;98637.75;;;29.89;55.68
21359;BME280;13506;50.852;20.632;2022-08-03T07:32:07;98650.91;;;30.24;56.47
21359;BME280;13506;50.852;20.632;2022-08-03T07:34:34;98648.88;;;30.13;55.35
21359;BME280;13506;50.852;20.632;2022-08-03T07:37:02;98647.63;;;30.29;55.13
21359;BME280;13506;50.852;20.632;2022-08-03T07:39:30;98659.19;;;30.22;54.68
21359;BME280;13506;50.852;20.632;2022-08-03T07:41:57;98650.50;;;30.14;54.42
21359;BME280;13506;50.852;20.632;2022-08-03T07:44:25;98650.31;;;30.22;53.66
21359;BME280;13506;50.852;20.632;2022-08-03T07:46:53;98651.78;;;29.98;52.56
21359;BME280;13506;50.852;20.632;2022-08-03T07:49:22;98650.72;;;29.66;52.92
21359;BME280;13506;50.852;20.632;2022-08-03T07:51:50;98659.13;;;29.49;53.49
21359;BME280;13506;50.852;20.632;2022-08-03T07:54:47;98662.78;;;29.28;54.99
21359;BME280;13506;50.852;20.632;2022-08-03T07:57:15;98647.50;;;29.15;54.66
21359;BME280;13506;50.852;20.632;2022-08-03T07:59:44;98662.63;;;28.88;54.12
21359;BME280;13506;50.852;20.632;2022-08-03T08:02:13;98656.19;;;28.82;54.92
21359;BME280;13506;50.852;20.632;2022-08-03T08:04:41;98658.09;;;28.95;55.79
21359;BME280;13506;50.852;20.632;2022-08-03T08:07:09;98661.44;;;29.04;55.95
21359;BME280;13506;50.852;20.632;2022-08-03T08:09:36;98662.91;;;29.07;55.74
21359;BME280;13506;50.852;20.632;2022-08-03T08:12:05;98667.13;;;28.81;55.86
21359;BME280;13506;50.852;20.632;2022-08-03T08:14:33;98663.09;;;29.05;54.94
21359;BME280;13506;50.852;20.632;2022-08-03T08:17:00;98667.72;;;29.25;54.64
21359;BME280;13506;50.852;20.632;2022-08-03T08:19:30;98661.66;;;29.02;54.30
21359;BME280;13506;50.852;20.632;2022-08-03T08:21:57;98659.66;;;29.18;53.36
21359;BME280;13506;50.852;20.632;2022-08-03T08:24:24;98661.13;;;29.27;52.15
21359;BME280;13506;50.852;20.632;2022-08-03T08:26:52;98663.34;;;29.10;53.57
21359;BME280;13506;50.852;20.632;2022-08-03T08:29:20;98664.47;;;28.53;55.13
21359;BME280;13506;50.852;20.632;2022-08-03T08:31:48;98668.69;;;28.62;55.11
21359;BME280;13506;50.852;20.632;2022-08-03T08:34:17;98671.34;;;28.62;54.00
21359;BME280;13506;50.852;20.632;2022-08-03T08:36:46;98671.63;;;28.80;53.95
21359;BME280;13506;50.852;20.632;2022-08-03T08:39:14;98676.19;;;28.87;53.79
21359;BME280;13506;50.852;20.632;2022-08-03T08:41:42;98676.28;;;29.00;54.12
21359;BME280;13506;50.852;20.632;2022-08-03T08:44:09;98678.88;;;28.87;53.34
21359;BME280;13506;50.852;20.632;2022-08-03T08:46:37;98673.38;;;29.01;54.63
21359;BME280;13506;50.852;20.632;2022-08-03T08:49:08;98674.00;;;29.58;55.27
21359;BME280;13506;50.852;20.632;2022-08-03T08:51:39;98662.50;;;30.04;53.90
21359;BME280;13506;50.852;20.632;2022-08-03T08:54:12;98679.19;;;30.53;51.22
21359;BME280;13506;50.852;20.632;2022-08-03T08:56:40;98675.41;;;30.88;50.67
21359;BME280;13506;50.852;20.632;2022-08-03T08:59:10;98674.78;;;30.99;49.15
21359;BME280;13506;50.852;20.632;2022-08-03T09:01:38;98663.59;;;30.95;50.00
21359;BME280;13506;50.852;20.632;2022-08-03T09:04:06;98677.16;;;30.49;49.99
21359;BME280;13506;50.852;20.632;2022-08-03T09:06:34;98664.44;;;31.34;48.24
21359;BME280;13506;50.852;20.632;2022-08-03T09:09:02;98672.44;;;31.54;47.43
21359;BME280;13506;50.852;20.632;2022-08-03T09:11:33;98666.06;;;32.05;48.99
21359;BME280;13506;50.852;20.632;2022-08-03T09:14:00;98665.09;;;32.43;46.29
21359;BME280;13506;50.852;20.632;2022-08-03T09:16:29;98666.38;;;32.41;45.95
21359;BME280;13506;50.852;20.632;2022-08-03T09:19:11;98669.19;;;31.71;45.80
21359;BME280;13506;50.852;20.632;2022-08-03T09:21:39;98669.16;;;31.39;46.83
21359;BME280;13506;50.852;20.632;2022-08-03T09:24:07;98671.22;;;31.50;46.43
21359;BME280;13506;50.852;20.632;2022-08-03T09:26:37;98659.72;;;31.30;46.80
21359;BME280;13506;50.852;20.632;2022-08-03T09:29:06;98662.09;;;31.51;47.70
21359;BME280;13506;50.852;20.632;2022-08-03T09:31:36;98659.66;;;31.43;47.63
21359;BME280;13506;50.852;20.632;2022-08-03T09:34:06;98657.97;;;31.80;47.19
21359;BME280;13506;50.852;20.632;2022-08-03T09:36:39;98656.19;;;31.99;45.62
21359;BME280;13506;50.852;20.632;2022-08-03T09:39:09;98658.09;;;31.92;45.58
21359;BME280;13506;50.852;20.632;2022-08-03T09:41:41;98654.66;;;31.78;45.69
21359;BME280;13506;50.852;20.632;2022-08-03T09:44:09;98662.56;;;31.35;46.30
21359;BME280;13506;50.852;20.632;2022-08-03T09:46:52;98657.63;;;31.32;46.88
21359;BME280;13506;50.852;20.632;2022-08-03T09:49:20;98656.63;;;31.33;48.47
21359;BME280;13506;50.852;20.632;2022-08-03T09:51:48;98662.56;;;31.35;47.96
21359;BME280;13506;50.852;20.632;2022-08-03T09:54:26;98660.53;;;31.30;46.50
21359;BME280;13506;50.852;20.632;2022-08-03T09:56:56;98654.38;;;31.23;46.52
21359;BME280;13506;50.852;20.632;2022-08-03T09:59:27;98651.47;;;31.24;45.87
21359;BME280;13506;50.852;20.632;2022-08-03T10:01:57;98650.44;;;30.74;47.55
21359;BME280;13506;50.852;20.632;2022-08-03T10:04:26;98654.84;;;30.55;48.79
21359;BME280;13506;50.852;20.632;2022-08-03T10:07:06;98664.75;;;30.28;48.23
21359;BME280;13506;50.852;20.632;2022-08-03T10:09:37;98664.78;;;30.34;47.99
21359;BME280;13506;50.852;20.632;2022-08-03T10:12:10;98669.91;;;30.49;50.43
21359;BME280;13506;50.852;20.632;2022-08-03T10:14:41;98654.81;;;30.61;49.02
21359;BME280;13506;50.852;20.632;2022-08-03T10:17:11;98658.78;;;30.32;48.44
21359;BME280;13506;50.852;20.632;2022-08-03T10:19:39;98662.66;;;30.56;49.08
21359;BME280;13506;50.852;20.632;2022-08-03T10:22:12;98649.97;;;30.83;47.09
21359;BME280;13506;50.852;20.632;2022-08-03T10:24:51;98653.44;;;31.04;46.07
21359;BME280;13506;50.852;20.632;2022-08-03T10:27:22;98653.56;;;31.22;46.22
21359;BME280;13506;50.852;20.632;2022-08-03T10:29:52;98646.00;;;31.44;47.74
21359;BME280;13506;50.852;20.632;2022-08-03T10:32:29;98644.34;;;31.75;46.97
21359;BME280;13506;50.852;20.632;2022-08-03T10:35:05;98644.78;;;31.97;47.44
21359;BME280;13506;50.852;20.632;2022-08-03T10:37:40;98647.03;;;32.07;45.46
21359;BME280;13506;50.852;20.632;2022-08-03T10:40:14;98646.84;;;32.02;45.63
21359;BME280;13506;50.852;20.632;2022-08-03T10:42:44;98643.88;;;32.10;45.67
21359;BME280;13506;50.852;20.632;2022-08-03T10:45:19;98646.16;;;32.32;45.67
21359;BME280;13506;50.852;20.632;2022-08-03T10:47:49;98648.06;;;32.50;44.16
21359;BME280;13506;50.852;20.632;2022-08-03T10:50:18;98639.72;;;32.58;44.04
21359;BME280;13506;50.852;20.632;2022-08-03T10:52:55;98642.28;;;32.46;43.33
21359;BME280;13506;50.852;20.632;2022-08-03T10:55:31;98639.09;;;32.56;43.08
21359;BME280;13506;50.852;20.632;2022-08-03T10:58:51;98635.25;;;32.63;43.78
21359;BME280;13506;50.852;20.632;2022-08-03T11:01:49;98644.16;;;32.45;43.88
21359;BME280;13506;50.852;20.632;2022-08-03T11:04:18;98641.78;;;32.12;43.64
21359;BME280;13506;50.852;20.632;2022-08-03T11:06:47;98636.00;;;32.09;43.99
21359;BME280;13506;50.852;20.632;2022-08-03T11:09:17;98631.81;;;32.13;44.06
21359;BME280;13506;50.852;20.632;2022-08-03T11:11:47;98637.72;;;32.28;43.38
21359;BME280;13506;50.852;20.632;2022-08-03T11:14:18;98639.72;;;32.33;45.57
21359;BME280;13506;50.852;20.632;2022-08-03T11:16:49;98641.38;;;32.52;44.63
21359;BME280;13506;50.852;20.632;2022-08-03T11:19:19;98637.16;;;32.63;44.29
21359;BME280;13506;50.852;20.632;2022-08-03T11:21:56;98642.41;;;32.58;44.82
21359;BME280;13506;50.852;20.632;2022-08-03T11:24:58;98634.38;;;32.08;44.26
21359;BME280;13506;50.852;20.632;2022-08-03T11:27:31;98632.72;;;31.81;43.81
21359;BME280;13506;50.852;20.632;2022-08-03T11:30:06;98631.03;;;31.55;45.20
21359;BME280;13506;50.852;20.632;2022-08-03T11:32:56;98631.53;;;31.46;45.06
21359;BME280;13506;50.852;20.632;2022-08-03T11:35:26;98628.50;;;31.29;46.60
21359;BME280;13506;50.852;20.632;2022-08-03T11:38:11;98631.84;;;31.17;46.74
21359;BME280;13506;50.852;20.632;2022-08-03T11:40:42;98628.41;;;31.10;46.08
21359;BME280;13506;50.852;20.632;2022-08-03T11:43:43;98629.84;;;31.06;46.72
21359;BME280;13506;50.852;20.632;2022-08-03T11:46:13;98625.16;;;30.95;46.85
21359;BME280;13506;50.852;20.632;2022-08-03T11:48:46;98632.34;;;31.01;46.87
21359;BME280;13506;50.852;20.632;2022-08-03T11:51:22;98626.81;;;30.96;46.93
21359;BME280;13506;50.852;20.632;2022-08-03T11:53:54;98622.72;;;30.87;47.46
21359;BME280;13506;50.852;20.632;2022-08-03T11:56:23;98623.72;;;30.85;47.83
21359;BME280;13506;50.852;20.632;2022-08-03T11:58:56;98621.25;;;30.91;46.48
21359;BME280;13506;50.852;20.632;2022-08-03T12:01:26;98624.56;;;30.93;46.18
21359;BME280;13506;50.852;20.632;2022-08-03T12:04:03;98616.13;;;31.21;45.66
21359;BME280;13506;50.852;20.632;2022-08-03T12:06:32;98620.56;;;31.40;45.23
21359;BME280;13506;50.852;20.632;2022-08-03T12:09:20;98610.25;;;31.69;43.73
21359;BME280;13506;50.852;20.632;2022-08-03T12:11:47;98615.16;;;31.97;42.99
21359;BME280;13506;50.852;20.632;2022-08-03T12:14:16;98616.38;;;31.76;43.69
21359;BME280;13506;50.852;20.632;2022-08-03T12:16:48;98618.94;;;31.96;44.18
21359;BME280;13506;50.852;20.632;2022-08-03T12:19:15;98613.72;;;32.01;44.01
21359;BME280;13506;50.852;20.632;2022-08-03T12:21:45;98606.50;;;31.95;44.34
21359;BME280;13506;50.852;20.632;2022-08-03T12:24:14;98602.66;;;31.59;44.75
21359;BME280;13506;50.852;20.632;2022-08-03T12:26:45;98609.78;;;31.47;45.11
21359;BME280;13506;50.852;20.632;2022-08-03T12:29:16;98607.03;;;31.54;45.60
21359;BME280;13506;50.852;20.632;2022-08-03T12:31:45;98598.50;;;31.63;45.72
21359;BME280;13506;50.852;20.632;2022-08-03T12:34:14;98597.50;;;31.83;44.99
21359;BME280;13506;50.852;20.632;2022-08-03T12:36:50;98591.50;;;31.81;44.80
21359;BME280;13506;50.852;20.632;2022-08-03T12:39:24;98593.25;;;31.69;44.26
21359;BME280;13506;50.852;20.632;2022-08-03T12:41:55;98590.22;;;31.65;45.10
21359;BME280;13506;50.852;20.632;2022-08-03T12:44:29;98586.69;;;31.64;45.43
21359;BME280;13506;50.852;20.632;2022-08-03T12:46:59;98585.91;;;31.57;45.33
21359;BME280;13506;50.852;20.632;2022-08-03T12:49:44;98581.59;;;31.56;45.32
21359;BME280;13506;50.852;20.632;2022-08-03T12:52:12;98587.84;;;31.50;44.65
21359;BME280;13506;50.852;20.632;2022-08-03T12:54:40;98581.84;;;31.48;45.16
21359;BME280;13506;50.852;20.632;2022-08-03T12:57:11;98593.63;;;31.47;44.81
21359;BME280;13506;50.852;20.632;2022-08-03T12:59:40;98582.34;;;31.32;45.33
21359;BME280;13506;50.852;20.632;2022-08-03T13:02:15;98573.06;;;31.28;45.04
21359;BME280;13506;50.852;20.632;2022-08-03T13:04:44;98578.09;;;31.17;44.97
21359;BME280;13506;50.852;20.632;2022-08-03T13:07:13;98589.19;;;30.96;45.35
21359;BME280;13506;50.852;20.632;2022-08-03T13:09:43;98587.16;;;30.84;44.95